Time;durP1;ratioP1;P1;durP2;ratioP2;P2;SDS_P1;SDS_P2;PMS_P1;PMS_P2;Temp;Humidity;BMP_temperature;BMP_pressure;BME280_temperature;BME280_humidity;BME280_pressure;Samples;Min_cycle;Max_cycle;Signal;HPM_P1;HPM_P2
2022/09/01 00:01:19;;;;;;;12.18;9.80;;;23.00;99.90;;;;;;4842292;29;20046;-93
2022/09/01 00:03:51;;;;;;;13.30;9.43;;;23.00;99.90;;;;;;4811539;29;20098;-95
2022/09/01 00:06:22;;;;;;;13.23;8.73;;;23.00;99.90;;;;;;4826542;29;20063;-93
2022/09/01 00:08:56;;;;;;;12.27;8.75;;;23.10;99.90;;;;;;4824471;29;20034;-93
2022/09/01 00:11:27;;;;;;;12.35;9.45;;;23.10;99.90;;;;;;4809077;29;20046;-94
2022/09/01 00:14:00;;;;;;;15.32;9.32;;;23.10;99.90;;;;;;4808497;29;20197;-94
2022/09/01 00:16:29;;;;;;;11.48;9.20;;;23.00;99.90;;;;;;4801314;29;20047;-94
2022/09/01 00:18:58;;;;;;;19.00;11.80;;;23.00;99.90;;;;;;4782771;30;20080;-94
2022/09/01 00:21:29;;;;;;;12.23;8.52;;;23.00;99.90;;;;;;4808753;29;20053;-93
2022/09/01 00:23:56;;;;;;;12.88;8.90;;;22.90;99.90;;;;;;4834776;29;20042;-93
2022/09/01 00:26:23;;;;;;;11.75;8.48;;;22.80;99.90;;;;;;4819251;29;20043;-93
2022/09/01 00:28:50;;;;;;;13.57;9.07;;;22.70;99.90;;;;;;4820287;29;20079;-94
2022/09/01 00:31:19;;;;;;;13.05;9.30;;;22.60;99.90;;;;;;4821422;29;20034;-94
2022/09/01 00:33:52;;;;;;;13.95;9.82;;;22.50;99.90;;;;;;4817824;29;20141;-93
2022/09/01 00:36:20;;;;;;;12.23;10.23;;;22.50;99.90;;;;;;4818462;29;20050;-95
2022/09/01 00:38:54;;;;;;;14.68;10.02;;;22.50;99.90;;;;;;4829244;29;20041;-93
2022/09/01 00:41:32;;;;;;;15.40;10.23;;;22.40;99.90;;;;;;4828593;29;20053;-94
2022/09/01 00:44:22;;;;;;;12.07;9.95;;;22.50;99.90;;;;;;4827972;29;20044;-94
2022/09/01 00:46:52;;;;;;;17.02;9.57;;;22.60;99.90;;;;;;4825632;29;20078;-93
2022/09/01 00:49:35;;;;;;;15.07;9.80;;;22.60;99.90;;;;;;4812148;29;20110;-94
2022/09/01 00:52:22;;;;;;;14.30;9.63;;;22.60;99.90;;;;;;4811786;29;20072;-94
2022/09/01 00:54:57;;;;;;;13.95;9.77;;;22.70;99.90;;;;;;4845956;29;20041;-93
2022/09/01 00:57:25;;;;;;;10.98;8.73;;;22.70;99.90;;;;;;4809511;29;20091;-93
2022/09/01 01:00:11;;;;;;;11.18;9.68;;;22.70;99.90;;;;;;4822203;29;20035;-93
2022/09/01 01:02:43;;;;;;;12.75;8.55;;;22.70;99.90;;;;;;4821975;29;20050;-94
2022/09/01 01:05:14;;;;;;;11.25;8.50;;;22.70;99.90;;;;;;4821399;29;20058;-93
2022/09/01 01:07:47;;;;;;;11.60;8.32;;;22.70;99.90;;;;;;4818320;29;20043;-93
2022/09/01 01:10:16;;;;;;;10.65;7.68;;;22.70;99.90;;;;;;4817950;29;20077;-94
2022/09/01 01:12:50;;;;;;;9.15;7.30;;;22.50;99.90;;;;;;4840490;29;20030;-93
2022/09/01 01:15:32;;;;;;;;;;;22.50;99.90;;;;;;4842265;29;20050;-93
2022/09/01 01:18:00;;;;;;;11.35;8.18;;;22.40;99.90;;;;;;4841257;29;20334;-93
2022/09/01 01:24:13;;;;;;;9.30;7.78;;;22.30;99.90;;;;;;4856212;23;20034;-94
2022/09/01 01:26:48;;;;;;;11.85;8.30;;;22.20;99.90;;;;;;4875263;29;20045;-94
2022/09/01 01:29:21;;;;;;;8.75;7.63;;;22.20;99.90;;;;;;4868817;29;20033;-94
2022/09/01 01:31:52;;;;;;;10.00;8.55;;;22.10;99.90;;;;;;4881192;29;20041;-95
2022/09/01 01:34:23;;;;;;;12.65;8.10;;;22.00;99.90;;;;;;4877383;29;20033;-94
2022/09/01 01:36:52;;;;;;;14.10;9.10;;;22.00;99.90;;;;;;4875747;29;20398;-93
2022/09/01 01:39:27;;;;;;;11.50;8.38;;;22.00;99.90;;;;;;4876123;29;20065;-94
2022/09/01 01:41:59;;;;;;;15.52;9.25;;;22.00;99.90;;;;;;4880155;29;20036;-94
2022/09/01 01:44:29;;;;;;;15.60;9.93;;;22.00;99.90;;;;;;4877857;29;20100;-94
2022/09/01 01:47:03;;;;;;;14.55;10.05;;;22.00;99.90;;;;;;4864086;29;20037;-93
2022/09/01 01:49:30;;;;;;;12.02;8.95;;;22.00;99.90;;;;;;4873308;29;20173;-92
2022/09/01 01:51:57;;;;;;;13.77;10.13;;;21.90;99.90;;;;;;4874361;29;20025;-92
2022/09/01 01:54:31;;;;;;;14.38;10.00;;;21.90;99.90;;;;;;4872553;29;20120;-93
2022/09/01 01:57:03;;;;;;;13.60;10.27;;;21.90;99.90;;;;;;4873620;29;20041;-92
2022/09/01 01:59:32;;;;;;;12.27;9.73;;;21.90;99.90;;;;;;4875067;29;20085;-93
2022/09/01 02:02:02;;;;;;;13.90;10.15;;;21.80;99.90;;;;;;4858530;29;20033;-92
2022/09/01 02:05:11;;;;;;;15.70;11.32;;;21.80;99.90;;;;;;4877356;29;20037;-93
2022/09/01 02:07:41;;;;;;;15.63;10.63;;;21.80;99.90;;;;;;4802511;29;20055;-93
2022/09/01 02:10:15;;;;;;;18.33;10.98;;;21.80;99.90;;;;;;4773568;30;20043;-92
2022/09/01 02:12:45;;;;;;;14.18;9.82;;;21.80;99.90;;;;;;4773211;30;20111;-92
2022/09/01 02:15:14;;;;;;;14.40;10.55;;;21.80;99.90;;;;;;4773814;30;20027;-93
2022/09/01 02:17:45;;;;;;;14.95;10.82;;;21.70;99.90;;;;;;4784677;30;20065;-92
2022/09/01 02:20:14;;;;;;;14.02;10.43;;;21.70;99.90;;;;;;4784780;30;20040;-92
2022/09/01 02:22:45;;;;;;;15.50;11.18;;;21.60;99.90;;;;;;4783328;30;20043;-92
2022/09/01 02:25:15;;;;;;;14.95;11.13;;;21.60;99.90;;;;;;4768956;30;20059;-92
2022/09/01 02:27:43;;;;;;;16.88;12.00;;;21.60;99.90;;;;;;4781548;30;20043;-92
2022/09/01 02:30:11;;;;;;;12.57;10.80;;;21.60;99.90;;;;;;4767619;30;20044;-92
2022/09/01 02:32:40;;;;;;;13.05;10.88;;;21.60;99.90;;;;;;4763864;30;20108;-92
2022/09/01 02:35:08;;;;;;;15.48;10.80;;;21.60;99.90;;;;;;4767124;30;20035;-92
2022/09/01 02:37:41;;;;;;;15.90;11.18;;;21.60;99.90;;;;;;4770992;30;20041;-93
2022/09/01 02:40:10;;;;;;;17.25;10.77;;;21.60;99.90;;;;;;4775954;30;20043;-93
2022/09/01 02:42:42;;;;;;;17.95;12.40;;;21.50;99.90;;;;;;4787411;30;20031;-93
2022/09/01 02:45:15;;;;;;;14.27;10.00;;;21.50;99.90;;;;;;4845868;29;20050;-92
2022/09/01 02:47:44;;;;;;;15.80;11.52;;;21.40;99.90;;;;;;4852363;29;20046;-92
2022/09/01 02:50:17;;;;;;;15.15;11.30;;;21.30;99.90;;;;;;4840542;29;20038;-93
2022/09/01 02:52:51;;;;;;;18.38;13.10;;;21.30;99.90;;;;;;4856004;29;20037;-93
2022/09/01 02:55:21;;;;;;;15.65;12.18;;;21.30;99.90;;;;;;4854718;29;20066;-94
2022/09/01 02:57:54;;;;;;;14.50;11.75;;;21.40;99.90;;;;;;4857912;29;20087;-93
2022/09/01 03:00:30;;;;;;;16.75;10.75;;;21.40;99.90;;;;;;4857827;29;20049;-93
2022/09/01 03:03:01;;;;;;;13.57;10.13;;;21.50;99.90;;;;;;4858318;29;20069;-93
2022/09/01 03:05:31;;;;;;;18.63;11.93;;;21.40;99.90;;;;;;4856186;29;20061;-92
2022/09/01 03:08:06;;;;;;;14.27;10.05;;;21.40;99.90;;;;;;4856162;29;20057;-93
2022/09/01 03:10:40;;;;;;;12.75;11.05;;;21.40;99.90;;;;;;4857571;29;20057;-93
2022/09/01 03:23:19;;;;;;;16.45;10.93;;;21.30;99.90;;;;;;5627236;23;20128;-93
2022/09/01 03:25:55;;;;;;;17.50;10.63;;;21.30;99.90;;;;;;4919411;29;20068;-94
2022/09/01 03:28:22;;;;;;;14.32;10.20;;;21.30;99.90;;;;;;4917857;29;20029;-93
2022/09/01 03:30:53;;;;;;;14.40;11.13;;;21.30;99.90;;;;;;4894703;29;20029;-93
2022/09/01 03:33:24;;;;;;;14.55;10.30;;;21.30;99.90;;;;;;4909706;29;20039;-93
2022/09/01 03:35:52;;;;;;;13.02;8.60;;;21.30;99.90;;;;;;4889990;29;20036;-94
2022/09/01 03:38:21;;;;;;;16.88;10.75;;;21.30;99.90;;;;;;4888475;29;20052;-94
2022/09/01 03:41:00;;;;;;;16.48;10.57;;;21.40;99.90;;;;;;4889140;29;20054;-93
2022/09/01 03:43:34;;;;;;;14.00;10.75;;;21.40;99.90;;;;;;4888399;29;20043;-93
2022/09/01 03:46:00;;;;;;;13.50;10.10;;;21.40;99.90;;;;;;4891119;29;20044;-93
2022/09/01 03:48:30;;;;;;;13.93;10.20;;;21.30;99.90;;;;;;4890440;29;20024;-94
2022/09/01 03:51:10;;;;;;;12.88;9.90;;;21.20;99.90;;;;;;4905258;29;20028;-94
2022/09/01 03:53:38;;;;;;;12.80;9.48;;;21.20;99.90;;;;;;4904636;29;20036;-94
2022/09/01 03:56:07;;;;;;;16.55;10.73;;;21.10;99.90;;;;;;4888739;29;20028;-93
2022/09/01 03:58:35;;;;;;;13.70;9.93;;;21.10;99.90;;;;;;4888758;29;20032;-93
2022/09/01 04:01:03;;;;;;;10.90;8.48;;;21.10;99.90;;;;;;4888089;29;20033;-94
2022/09/01 04:03:33;;;;;;;12.18;10.05;;;21.10;99.90;;;;;;4889208;29;20032;-94
2022/09/01 04:06:04;;;;;;;13.52;10.23;;;21.10;99.90;;;;;;4890353;29;20040;-93
2022/09/01 04:08:33;;;;;;;13.65;10.55;;;21.10;99.90;;;;;;4907654;29;20028;-93
2022/09/01 04:11:14;;;;;;;14.93;9.05;;;21.20;99.90;;;;;;4891391;29;20044;-93
2022/09/01 04:13:46;;;;;;;14.48;10.13;;;21.20;99.90;;;;;;4906765;29;20079;-94
2022/09/01 04:19:24;;;;;;;12.77;10.02;;;21.40;99.90;;;;;;4906561;29;20039;-93
2022/09/01 04:21:59;;;;;;;15.70;9.02;;;21.50;99.90;;;;;;4894129;29;20043;-93
2022/09/01 04:24:32;;;;;;;11.48;9.95;;;21.60;99.90;;;;;;4910119;29;20148;-94
2022/09/01 04:27:02;;;;;;;12.77;8.73;;;21.60;99.90;;;;;;4885700;29;20025;-95
2022/09/01 04:29:31;;;;;;;14.15;9.52;;;21.60;99.90;;;;;;4875696;29;20116;-94
2022/09/01 04:32:04;;;;;;;10.25;8.45;;;21.60;99.90;;;;;;4873852;29;20490;-93
2022/09/01 04:34:37;;;;;;;12.05;8.27;;;21.60;99.90;;;;;;4891246;29;20578;-93
2022/09/01 04:37:13;;;;;;;9.52;8.55;;;21.60;99.90;;;;;;4874533;29;20037;-94
2022/09/01 04:39:52;;;;;;;11.68;9.13;;;21.70;99.90;;;;;;4875080;29;20184;-94
2022/09/01 04:42:25;;;;;;;11.10;8.20;;;21.70;99.90;;;;;;4889783;29;20045;-94
2022/09/01 04:44:56;;;;;;;13.73;8.47;;;21.70;99.90;;;;;;4875616;29;20041;-95
2022/09/01 04:47:30;;;;;;;12.75;8.80;;;21.70;99.90;;;;;;4875751;29;20280;-94
2022/09/01 04:50:00;;;;;;;21.35;8.68;;;21.70;99.90;;;;;;4891157;29;20036;-93
2022/09/01 04:52:30;;;;;;;12.52;8.15;;;21.70;99.90;;;;;;4874899;29;20025;-93
2022/09/01 04:55:02;;;;;;;10.77;8.20;;;21.80;99.90;;;;;;4889382;29;20123;-93
2022/09/01 04:57:30;;;;;;;12.57;8.27;;;21.90;99.90;;;;;;4903705;29;20037;-94
2022/09/01 04:59:57;;;;;;;11.52;8.15;;;22.00;99.90;;;;;;4872882;29;20020;-94
2022/09/01 05:02:27;;;;;;;13.50;7.78;;;22.20;99.90;;;;;;4887752;29;20044;-95
2022/09/01 05:04:57;;;;;;;8.75;7.03;;;22.80;99.90;;;;;;4871713;29;20067;-94
2022/09/01 05:07:25;;;;;;;14.05;12.60;;;23.70;99.90;;;;;;4871206;29;20080;-94
2022/09/01 05:09:56;;;;;;;15.02;10.77;;;24.80;99.90;;;;;;4871244;29;20029;-93
2022/09/01 05:12:51;;;;;;;12.32;11.35;;;25.60;99.90;;;;;;4877421;29;20035;-94
2022/09/01 05:15:20;;;;;;;14.73;12.85;;;26.60;99.90;;;;;;4873841;29;20067;-94
2022/09/01 05:17:48;;;;;;;10.98;10.18;;;27.40;99.90;;;;;;4872490;29;20029;-94
2022/09/01 05:20:15;;;;;;;12.95;11.85;;;27.80;99.90;;;;;;4870863;29;20123;-94
2022/09/01 05:22:43;;;;;;;13.32;12.32;;;28.30;99.90;;;;;;4870562;29;20479;-95
2022/09/01 05:25:13;;;;;;;14.35;13.40;;;28.50;99.90;;;;;;4869286;29;20056;-91
2022/09/01 05:27:49;;;;;;;15.57;14.38;;;28.70;99.90;;;;;;4885816;29;20486;-93
2022/09/01 05:30:19;;;;;;;15.20;13.98;;;29.40;99.90;;;;;;4870461;29;20111;-93
2022/09/01 05:33:24;;;;;;;16.55;15.20;;;29.70;99.90;;;;;;4871729;29;20029;-93
2022/09/01 05:35:56;;;;;;;16.33;15.13;;;30.20;99.90;;;;;;4870649;29;20040;-93
2022/09/01 05:38:24;;;;;;;16.92;15.52;;;30.40;99.90;;;;;;4870606;29;20111;-94
2022/09/01 05:41:10;;;;;;;16.10;15.00;;;30.70;99.90;;;;;;4871682;29;20045;-94
2022/09/01 05:43:38;;;;;;;15.93;14.57;;;30.70;99.90;;;;;;4871818;29;20073;-93
2022/09/01 05:46:08;;;;;;;16.58;15.48;;;31.00;99.90;;;;;;4871835;29;20028;-93
2022/09/01 05:48:38;;;;;;;16.60;15.30;;;31.40;99.90;;;;;;4872649;29;20028;-94
2022/09/01 05:51:07;;;;;;;16.73;15.60;;;31.60;99.90;;;;;;4871193;29;20086;-93
2022/09/01 05:53:34;;;;;;;16.63;15.43;;;32.10;99.90;;;;;;4871998;29;20099;-94
2022/09/01 05:56:08;;;;;;;16.63;15.55;;;32.00;99.90;;;;;;4872612;29;20051;-93
2022/09/01 05:58:37;;;;;;;17.25;15.95;;;31.50;99.90;;;;;;4872962;29;20400;-94
2022/09/01 06:01:05;;;;;;;16.58;15.48;;;31.60;99.90;;;;;;4870345;29;20112;-93
2022/09/01 06:03:33;;;;;;;16.95;15.70;;;31.60;99.90;;;;;;4868743;29;20029;-91
2022/09/01 06:06:11;;;;;;;15.65;14.55;;;31.50;99.90;;;;;;4869556;29;20482;-92
2022/09/01 06:08:59;;;;;;;18.23;15.98;;;31.40;99.90;;;;;;4876701;29;20041;-93
2022/09/01 06:11:30;;;;;;;16.58;15.30;;;31.60;99.90;;;;;;4893406;29;20055;-91
2022/09/01 06:13:58;;;;;;;15.95;14.85;;;31.40;99.90;;;;;;4888094;29;20124;-91
2022/09/01 06:16:27;;;;;;;16.20;15.20;;;31.70;99.90;;;;;;4886066;29;20033;-91
2022/09/01 06:18:56;;;;;;;17.15;15.85;;;31.80;99.90;;;;;;4901040;29;20111;-95
2022/09/01 06:21:24;;;;;;;16.70;15.50;;;32.10;99.90;;;;;;4890699;29;20032;-94
2022/09/01 06:23:55;;;;;;;16.98;15.77;;;32.80;99.90;;;;;;4890099;29;20055;-90
2022/09/01 06:26:32;;;;;;;16.85;15.38;;;33.30;99.90;;;;;;4887580;29;20036;-91
2022/09/01 06:29:14;;;;;;;16.58;15.15;;;34.00;99.90;;;;;;4886843;29;20176;-91
2022/09/01 06:31:51;;;;;;;15.80;14.77;;;34.20;99.90;;;;;;4887357;29;20028;-91
2022/09/01 06:34:19;;;;;;;15.52;14.60;;;34.50;99.90;;;;;;4886590;29;20435;-92
2022/09/01 06:36:50;;;;;;;17.13;15.82;;;34.40;99.90;;;;;;4889074;29;20020;-91
2022/09/01 06:39:21;;;;;;;17.15;16.10;;;34.20;99.90;;;;;;4887218;29;20468;-91
2022/09/01 06:41:56;;;;;;;17.90;16.50;;;34.10;99.90;;;;;;4887490;29;20028;-92
2022/09/01 06:44:30;;;;;;;18.38;17.08;;;34.20;99.90;;;;;;4887285;29;20545;-91
2022/09/01 06:47:39;;;;;;;20.10;18.35;;;34.30;99.90;;;;;;4890491;29;20036;-91
2022/09/01 06:50:08;;;;;;;20.00;18.60;;;34.20;99.90;;;;;;4885631;29;20036;-90
2022/09/01 06:52:37;;;;;;;19.15;17.83;;;34.60;99.90;;;;;;4886263;29;20039;-89
2022/09/01 06:55:05;;;;;;;19.13;17.73;;;34.60;99.90;;;;;;4886142;29;20051;-90
2022/09/01 06:57:31;;;;;;;18.45;16.77;;;34.50;99.90;;;;;;4886145;29;20035;-93
2022/09/01 07:00:00;;;;;;;17.42;16.05;;;34.60;99.90;;;;;;4885885;29;20078;-89
2022/09/01 07:02:29;;;;;;;17.92;16.23;;;35.10;99.90;;;;;;4885886;29;20032;-91
2022/09/01 07:05:17;;;;;;;16.77;15.15;;;35.00;99.90;;;;;;4894537;29;20043;-88
2022/09/01 07:07:53;;;;;;;15.82;14.73;;;35.20;99.90;;;;;;4885663;29;20033;-88
2022/09/01 07:10:46;;;;;;;;;;;35.50;99.90;;;;;;4904692;29;20458;-88
2022/09/01 07:13:24;;;;;;;16.52;15.23;;;35.60;99.90;;;;;;4885977;29;20274;-89
2022/09/01 07:15:54;;;;;;;15.85;14.95;;;35.80;99.90;;;;;;4885768;29;20043;-91
2022/09/01 07:18:24;;;;;;;16.55;15.40;;;35.20;99.90;;;;;;4885592;29;20032;-93
2022/09/01 07:20:52;;;;;;;16.60;15.60;;;34.60;99.90;;;;;;4900934;29;20032;-89
2022/09/01 07:23:21;;;;;;;15.77;14.88;;;34.70;99.90;;;;;;4885540;29;20064;-91
2022/09/01 07:25:54;;;;;;;16.58;15.48;;;35.00;99.90;;;;;;4901332;29;20024;-91
2022/09/01 07:28:31;;;;;;;15.95;14.95;;;35.10;99.90;;;;;;4898433;29;20416;-88
2022/09/01 07:30:59;;;;;;;16.35;15.25;;;35.30;99.90;;;;;;4900625;29;20032;-91
2022/09/01 07:33:29;;;;;;;16.27;15.20;;;35.00;99.90;;;;;;4870122;29;21565;-89
2022/09/01 07:35:57;;;;;;;16.52;15.38;;;34.90;99.90;;;;;;4895840;29;20099;-90
2022/09/01 07:38:27;;;;;;;15.85;14.05;;;35.00;99.90;;;;;;4881836;29;20041;-90
2022/09/01 07:40:54;;;;;;;15.52;14.45;;;34.80;99.90;;;;;;4882353;29;20082;-91
2022/09/01 07:43:43;;;;;;;15.88;14.88;;;34.90;99.90;;;;;;4883042;29;20127;-91
2022/09/01 07:46:33;;;;;;;15.80;14.68;;;35.00;99.90;;;;;;4885351;29;20043;-91
2022/09/01 07:49:01;;;;;;;16.27;15.10;;;34.80;99.90;;;;;;4872440;29;20039;-90
2022/09/01 07:51:30;;;;;;;15.30;14.30;;;34.80;99.90;;;;;;4882404;29;20505;-90
2022/09/01 07:54:00;;;;;;;16.10;14.50;;;34.80;99.90;;;;;;4887165;29;20403;-90
2022/09/01 07:56:29;;;;;;;15.52;14.52;;;34.70;99.90;;;;;;4886190;29;20060;-89
2022/09/01 07:58:58;;;;;;;16.13;15.02;;;34.80;99.90;;;;;;4880881;29;20517;-91
2022/09/01 08:01:27;;;;;;;16.30;15.30;;;34.80;99.90;;;;;;4890322;29;20050;-90
2022/09/01 08:03:58;;;;;;;16.10;14.98;;;34.70;99.90;;;;;;4890483;29;20035;-90
2022/09/01 08:06:27;;;;;;;16.00;14.90;;;34.80;99.90;;;;;;4898437;29;20039;-90
2022/09/01 08:09:06;;;;;;;15.65;14.68;;;34.70;99.90;;;;;;4887319;29;20032;-90
2022/09/01 08:11:34;;;;;;;15.98;14.98;;;34.80;99.90;;;;;;4890123;29;20035;-91
2022/09/01 08:14:01;;;;;;;15.98;14.88;;;34.90;99.90;;;;;;4896593;29;20028;-91
2022/09/01 08:16:34;;;;;;;15.50;14.50;;;35.00;99.90;;;;;;4905594;29;20093;-90
2022/09/01 08:19:02;;;;;;;15.10;14.10;;;34.90;99.90;;;;;;4900587;29;20378;-89
2022/09/01 08:21:55;;;;;;;15.55;14.50;;;34.30;99.90;;;;;;4850279;29;20507;-89
2022/09/01 08:24:28;;;;;;;15.13;14.23;;;34.70;99.90;;;;;;4847906;29;20054;-89
2022/09/01 08:26:54;;;;;;;15.77;14.68;;;35.00;99.90;;;;;;4847280;29;20149;-89
2022/09/01 08:29:21;;;;;;;16.02;15.02;;;35.40;99.90;;;;;;4843642;29;20046;-89
2022/09/01 08:31:48;;;;;;;15.93;14.93;;;35.40;99.90;;;;;;4846213;29;20112;-87
2022/09/01 08:34:15;;;;;;;15.80;15.00;;;35.30;99.90;;;;;;4846857;29;20166;-89
2022/09/01 08:36:42;;;;;;;17.42;15.60;;;35.70;99.90;;;;;;4848470;29;20101;-89
2022/09/01 08:39:10;;;;;;;16.23;15.23;;;35.80;99.90;;;;;;4847162;29;20034;-83
2022/09/01 08:41:44;;;;;;;16.92;15.60;;;35.50;99.90;;;;;;4847795;29;20029;-89
2022/09/01 08:44:32;;;;;;;16.17;15.18;;;34.60;99.90;;;;;;4848228;29;20029;-91
2022/09/01 08:47:12;;;;;;;17.70;15.93;;;34.20;99.90;;;;;;4862555;29;20137;-90
2022/09/01 08:49:46;;;;;;;16.98;15.40;;;33.80;99.90;;;;;;4847162;29;20040;-88
2022/09/01 08:52:50;;;;;;;15.57;14.52;;;33.50;99.90;;;;;;4832615;29;20037;-93
2022/09/01 08:55:26;;;;;;;16.73;15.40;;;33.30;99.90;;;;;;4863168;29;20462;-89
2022/09/01 08:57:59;;;;;;;16.00;14.82;;;33.10;99.90;;;;;;4858067;29;20064;-92
2022/09/01 09:00:29;;;;;;;16.05;14.93;;;33.00;99.90;;;;;;4904047;29;20055;-88
2022/09/01 09:03:25;;;;;;;15.55;14.40;;;33.40;99.90;;;;;;4888835;29;20494;-89
2022/09/01 09:06:32;;;;;;;15.13;14.18;;;33.40;99.90;;;;;;4886810;29;20042;-88
2022/09/01 09:09:10;;;;;;;15.82;14.70;;;33.40;99.90;;;;;;4887594;29;20031;-87
2022/09/01 09:11:51;;;;;;;16.08;14.82;;;33.20;99.90;;;;;;4887157;29;20490;-86
2022/09/01 09:14:24;;;;;;;16.20;14.85;;;33.20;99.90;;;;;;4886970;29;20043;-85
2022/09/01 09:16:55;;;;;;;15.70;14.65;;;33.30;99.90;;;;;;4886634;29;20054;-87
2022/09/01 09:19:43;;;;;;;15.77;14.85;;;33.20;99.90;;;;;;4887406;29;20036;-87
2022/09/01 09:22:17;;;;;;;16.20;14.90;;;33.30;99.90;;;;;;4887165;29;20103;-87
2022/09/01 09:25:13;;;;;;;15.63;14.73;;;33.30;99.90;;;;;;4886876;29;20090;-88
2022/09/01 09:27:47;;;;;;;15.43;14.32;;;33.30;99.90;;;;;;4887497;29;20450;-81
2022/09/01 09:30:26;;;;;;;15.02;14.20;;;33.10;99.90;;;;;;4901827;29;20035;-82
2022/09/01 09:33:03;;;;;;;15.82;14.40;;;33.10;99.90;;;;;;4894870;29;20027;-82
2022/09/01 09:35:36;;;;;;;14.70;13.80;;;33.10;99.90;;;;;;4904898;29;20046;-82
2022/09/01 09:38:18;;;;;;;15.10;13.90;;;33.00;99.90;;;;;;4891960;29;20035;-83
2022/09/01 09:41:01;;;;;;;15.43;14.20;;;32.90;99.90;;;;;;4886159;29;20067;-82
2022/09/01 09:43:31;;;;;;;14.80;14.00;;;32.50;99.90;;;;;;4886313;29;20042;-82
2022/09/01 09:46:25;;;;;;;15.65;14.30;;;32.20;99.90;;;;;;4884846;29;20032;-83
2022/09/01 09:49:25;;;;;;;14.98;14.07;;;32.00;99.90;;;;;;4901525;29;20032;-82
2022/09/01 09:52:17;;;;;;;14.93;13.88;;;31.80;99.90;;;;;;4901594;29;20036;-82
2022/09/01 09:55:02;;;;;;;14.80;13.52;;;31.60;99.90;;;;;;4829991;29;20084;-83
2022/09/01 09:57:31;;;;;;;15.20;14.00;;;31.60;99.90;;;;;;4829947;29;20037;-82
2022/09/01 10:00:05;;;;;;;15.18;13.98;;;31.40;99.90;;;;;;4829651;29;20037;-83
2022/09/01 10:02:43;;;;;;;15.18;14.00;;;31.40;99.90;;;;;;4845934;29;20040;-82
2022/09/01 10:05:33;;;;;;;15.20;14.00;;;31.50;99.90;;;;;;4829408;29;20053;-82
2022/09/01 10:08:00;;;;;;;15.40;14.27;;;31.70;99.90;;;;;;4829481;29;20052;-81
2022/09/01 10:10:45;;;;;;;14.93;13.80;;;31.80;99.90;;;;;;4844541;29;20397;-82
2022/09/01 10:13:23;;;;;;;15.73;14.25;;;31.70;99.90;;;;;;4829677;29;20041;-82
2022/09/01 10:15:52;;;;;;;15.40;14.13;;;31.40;99.90;;;;;;4844487;29;20045;-82
2022/09/01 10:18:29;;;;;;;15.68;14.32;;;31.60;99.90;;;;;;4844423;29;20046;-82
2022/09/01 10:21:21;;;;;;;16.52;15.13;;;31.60;99.90;;;;;;4844448;29;20037;-82
2022/09/01 10:23:47;;;;;;;15.82;14.52;;;31.60;99.90;;;;;;4844292;29;20057;-82
2022/09/01 10:26:29;;;;;;;15.57;14.38;;;31.70;99.90;;;;;;4860018;29;20543;-82
2022/09/01 10:29:20;;;;;;;15.52;14.43;;;31.90;99.90;;;;;;4829199;29;20468;-82
2022/09/01 10:31:47;;;;;;;15.10;13.90;;;31.90;99.90;;;;;;4883524;29;20051;-83
2022/09/01 10:34:18;;;;;;;16.85;15.10;;;31.90;99.90;;;;;;4885542;29;20115;-82
2022/09/01 10:36:46;;;;;;;15.50;14.50;;;32.00;99.90;;;;;;4901518;29;20040;-88
2022/09/01 10:39:15;;;;;;;15.52;14.43;;;32.00;99.90;;;;;;4885594;29;20429;-84
2022/09/01 10:41:42;;;;;;;16.25;15.15;;;32.20;99.90;;;;;;4901012;29;20367;-84
2022/09/01 10:44:39;;;;;;;17.50;15.93;;;32.20;99.90;;;;;;4885152;29;20039;-85
2022/09/01 10:47:25;;;;;;;15.70;14.60;;;32.30;99.90;;;;;;4900893;29;20544;-84
2022/09/01 10:49:53;;;;;;;16.27;15.07;;;32.60;99.90;;;;;;4885543;29;20107;-84
2022/09/01 10:52:42;;;;;;;16.02;14.93;;;32.50;99.90;;;;;;4885195;29;20525;-85
2022/09/01 10:55:18;;;;;;;16.05;15.10;;;32.30;99.90;;;;;;4900311;29;20490;-84
2022/09/01 10:57:59;;;;;;;14.73;13.93;;;32.40;99.90;;;;;;4884892;29;20080;-84
2022/09/01 11:00:26;;;;;;;15.27;14.27;;;32.20;99.90;;;;;;4900504;29;20505;-84
2022/09/01 11:03:42;;;;;;;16.10;14.88;;;32.20;99.90;;;;;;4885379;29;20088;-85
2022/09/01 11:06:09;;;;;;;15.88;14.88;;;32.20;99.90;;;;;;4881346;29;20044;-86
2022/09/01 11:08:47;;;;;;;15.43;14.50;;;32.10;99.90;;;;;;4885226;29;20024;-86
2022/09/01 11:11:34;;;;;;;14.98;14.02;;;32.20;99.90;;;;;;4902338;29;20032;-91
2022/09/01 11:14:04;;;;;;;15.60;14.40;;;32.10;99.90;;;;;;4886393;29;20036;-88
2022/09/01 11:16:32;;;;;;;15.05;14.07;;;32.00;99.90;;;;;;4887011;29;20119;-86
2022/09/01 11:19:37;;;;;;;14.40;13.48;;;31.90;99.90;;;;;;4885228;29;20371;-85
2022/09/01 11:22:27;;;;;;;14.75;13.88;;;31.90;99.90;;;;;;4873175;29;20067;-90
2022/09/01 11:25:27;;;;;;;14.88;14.07;;;31.90;99.90;;;;;;4885763;29;20052;-92
2022/09/01 11:27:55;;;;;;;14.65;13.85;;;31.90;99.90;;;;;;4885063;29;20040;-84
2022/09/01 11:30:29;;;;;;;15.18;13.95;;;31.90;99.90;;;;;;4887846;29;20098;-87
2022/09/01 11:33:25;;;;;;;15.57;14.38;;;31.90;99.90;;;;;;4905461;29;20064;-89
2022/09/01 11:36:12;;;;;;;14.82;14.02;;;31.90;99.90;;;;;;4889873;29;20051;-91
2022/09/01 11:39:02;;;;;;;15.38;14.40;;;31.80;99.90;;;;;;4905468;29;20039;-90
2022/09/01 13:30:27;;;;;;;17.55;14.15;;;29.90;99.90;;;;;;3137612;23;20335;-94
2022/09/01 13:33:27;;;;;;;;;;;;;;;;;;;;;
2022/09/01 13:35:54;;;;;;;14.00;13.20;;;29.70;99.90;;;;;;4910099;29;20498;-91
2022/09/01 13:38:23;;;;;;;14.10;13.18;;;29.60;99.90;;;;;;4890236;29;20020;-92
2022/09/01 13:41:06;;;;;;;14.05;13.00;;;29.50;99.90;;;;;;4964423;23;20057;-94
2022/09/01 13:43:34;;;;;;;14.40;13.40;;;29.40;99.90;;;;;;4867044;29;20554;-92
2022/09/01 13:46:01;;;;;;;13.85;12.88;;;29.30;99.90;;;;;;4849860;29;20036;-92
2022/09/01 13:48:27;;;;;;;12.73;12.02;;;29.30;99.90;;;;;;4865076;29;20088;-94
2022/09/01 13:50:54;;;;;;;13.18;12.52;;;29.20;99.90;;;;;;4849843;29;20033;-91
2022/09/01 13:53:21;;;;;;;14.15;13.15;;;29.10;99.90;;;;;;4850197;29;20025;-91
2022/09/01 13:55:48;;;;;;;13.80;13.00;;;29.10;99.90;;;;;;4850984;29;20157;-91
2022/09/01 13:58:15;;;;;;;13.27;12.52;;;29.00;99.90;;;;;;4856941;29;20033;-92
2022/09/01 14:00:45;;;;;;;13.40;12.63;;;28.90;99.90;;;;;;4864011;29;20052;-93
2022/09/01 14:03:17;;;;;;;14.15;13.15;;;28.80;99.90;;;;;;4854466;29;20056;-93
2022/09/01 14:05:46;;;;;;;14.30;13.15;;;28.80;99.90;;;;;;4851588;29;20120;-91
2022/09/01 14:08:16;;;;;;;13.65;12.70;;;28.70;99.90;;;;;;4851163;29;20029;-90
2022/09/01 14:10:47;;;;;;;14.15;13.20;;;28.70;99.90;;;;;;4850403;29;20044;-91
2022/09/01 14:13:14;;;;;;;13.70;12.80;;;28.50;99.90;;;;;;4850059;29;20116;-92
2022/09/01 14:15:41;;;;;;;13.57;12.63;;;28.50;99.90;;;;;;4849800;29;20128;-91
2022/09/01 14:18:08;;;;;;;14.07;13.00;;;28.50;99.90;;;;;;4849686;29;20033;-92
2022/09/01 14:20:38;;;;;;;13.15;12.40;;;28.60;99.90;;;;;;4849835;29;20032;-94
2022/09/01 14:23:06;;;;;;;14.10;12.90;;;28.60;99.90;;;;;;4850567;29;20036;-91
2022/09/01 14:25:36;;;;;;;13.85;13.05;;;28.70;99.90;;;;;;4850391;29;20487;-91
2022/09/01 14:28:04;;;;;;;14.07;12.93;;;28.70;99.90;;;;;;4849864;29;20130;-91
2022/09/01 14:30:32;;;;;;;13.18;12.38;;;28.40;99.90;;;;;;4849552;29;20037;-92
2022/09/01 14:33:00;;;;;;;14.20;12.90;;;28.50;99.90;;;;;;4850105;29;20102;-92
2022/09/01 14:35:29;;;;;;;13.65;12.60;;;28.50;99.90;;;;;;4849824;29;20045;-92
2022/09/01 14:37:57;;;;;;;13.30;12.50;;;28.40;99.90;;;;;;4851068;29;20036;-94
2022/09/01 14:40:24;;;;;;;12.77;12.00;;;28.20;99.90;;;;;;4849815;29;20037;-92
2022/09/01 14:42:52;;;;;;;14.15;12.88;;;28.00;99.90;;;;;;4849109;29;20088;-90
2022/09/01 14:45:25;;;;;;;13.85;12.45;;;27.90;99.90;;;;;;4849306;29;20539;-92
2022/09/01 14:47:57;;;;;;;14.02;12.90;;;27.90;99.90;;;;;;4849285;29;20111;-93
2022/09/01 14:50:24;;;;;;;13.20;12.18;;;28.00;99.90;;;;;;4848971;29;20029;-92
2022/09/01 14:52:55;;;;;;;13.52;12.60;;;28.10;99.90;;;;;;4848901;29;20037;-91
2022/09/01 14:55:27;;;;;;;13.15;12.35;;;28.00;99.90;;;;;;4848935;29;20121;-90
2022/09/01 14:57:53;;;;;;;13.10;12.30;;;28.10;99.90;;;;;;4849006;29;20064;-92
2022/09/01 15:00:23;;;;;;;12.93;12.30;;;28.10;99.90;;;;;;4848863;29;20047;-91
2022/09/01 15:02:51;;;;;;;12.70;12.00;;;28.20;99.90;;;;;;4849039;29;20144;-93
2022/09/01 15:05:17;;;;;;;12.75;12.05;;;28.20;99.90;;;;;;4848359;29;20048;-90
2022/09/01 15:07:44;;;;;;;12.90;12.02;;;28.30;99.90;;;;;;4864472;29;20029;-93
2022/09/01 15:10:15;;;;;;;13.18;12.25;;;28.60;99.90;;;;;;4848963;29;20089;-91